Angelo Coast Range Reserve, California Weather observations

Data are for 10 minute period ending at time listed.
 Day   Time   Solar   Ave.   Ave.  Ave.  Vector  Max.   Baro.   Total    
  of    of     Rad.   Air    Rel.  Wind   Wind   Wind  Press.  Precip.   
Year   Day            Temp.  Hum.  Speed  Dir.   Gust                    
2016   (PST)  Kw/m2    F      %     mph   deg.    mph    mb.     in.     
-------------------------------------------------------------------------
 337    1:10   0.00   31.6   100    1.2     7     2.3   973.5    0.00 
 337    1:20   0.00   31.5   100    1.6   328     2.3   973.4    0.00 
 337    1:30   0.00   31.4   100    2.1    11     2.8   973.4    0.00 
 337    1:40   0.00   31.2   100    0.7   328     1.6   973.3    0.00 
 337    1:50   0.00   30.8   100    0.6   317     1.5   973.3    0.00 
 337    2:00   0.00   30.6   100    0.1   328     0.7   973.4    0.00 
 337    2:10   0.00   30.6   100    0.0     0     0.0   973.6    0.00 
 337    2:20   0.00   30.6   100    0.0     0     0.0   973.7    0.00 
 337    2:30   0.00   30.4   100    0.0     0     0.0   973.9    0.00 
 337    2:40   0.00   30.3   100    0.0     0     0.0   973.8    0.00 
 337    2:50   0.00   30.1   100    0.6     2     2.5   973.7    0.00 
 337    3:00   0.00   30.1   100    1.1    16     2.0   973.6    0.00 
 337    3:10   0.00   30.0   100    0.4   277     1.2   973.7    0.00 
 337    3:20   0.00   29.8   100    0.8     2     1.8   973.8    0.00 
 337    3:30   0.00   29.8   100    0.4   348     1.5   973.9    0.00 
 337    3:40   0.00   29.8   100    1.2    27     2.3   974.1    0.00 
 337    3:50   0.00   29.8   100    1.3   357     2.3   974.2    0.00 
 337    4:00   0.00   29.7   100    0.4   356     1.8   974.2    0.00 
 337    4:10   0.00   29.7   100    1.8    17     2.5   974.3    0.00 
 337    4:20   0.00   29.7   100    2.0    14     2.5   974.2    0.00 
 337    4:30   0.00   29.7   100    2.3    22     3.3   974.3    0.00 
 337    4:40   0.00   29.8   100    1.4    22     3.4   974.4    0.00 
 337    4:50   0.00   29.6   100    0.5   348     1.7   974.4    0.00 
 337    5:00   0.00   29.5   100    1.4   358     2.0   974.2    0.00 
 337    5:10   0.00   29.5   100    1.2     3     2.1   974.1    0.00 
 337    5:20   0.00   29.4   100    1.5    26     3.1   974.2    0.00 
 337    5:30   0.00   29.5   100    0.9   350     1.7   974.3    0.00 
 337    5:40   0.00   29.4   100    0.7   347     1.6   974.3    0.00 
 337    5:50   0.00   29.2   100    1.4   355     2.9   974.3    0.00 
 337    6:00   0.00   29.3   100    1.1    13     2.9   974.3    0.00 
 337    6:10   0.00   29.2   100    0.2   322     1.1   974.6    0.00 
 337    6:20   0.00   29.2   100    0.0     0     0.0   974.8    0.00 
 337    6:30   0.00   29.1   100    0.2    54     1.1   974.7    0.00 
 337    6:40   0.00   29.0   100    0.4   334     1.4   974.6    0.00 
 337    6:50   0.00   29.0   100    0.0     0     0.0   974.6    0.00 
 337    7:00   0.00   29.0   100    0.0     0     0.0   974.7    0.00 
 337    7:10   0.00   29.1   100    0.3   342     0.9   974.7    0.00 
 337    7:20   0.02   29.4   100    0.9   328     1.8   974.8    0.00 
 337    7:30   0.02   29.9   100    0.6   336     1.8   975.0    0.00 
 337    7:40   0.02   30.2   100    1.1   348     3.0   974.7    0.00 
 337    7:50   0.02   30.6   100    1.3   341     3.4   974.4    0.00 
 337    8:00   0.01   30.9   100    1.0   177     2.7   974.3    0.00 
 337    8:10   0.01   31.2   100    1.2   165     3.4   974.4    0.00 
 337    8:20   0.01   31.5   100    0.4   152     2.3   974.5    0.00 
 337    8:30   0.01   31.6   100    0.4   325     2.3   974.7    0.00 
 337    8:40   0.03   31.8   100    0.9   192     2.3   974.9    0.00 
 337    8:50   0.04   32.0   100    0.3   187     2.1   974.8    0.00 
 337    9:00   0.05   32.1   100    0.8   187     2.3   974.7    0.00 
 337    9:10   0.06   32.3   100    0.2   175     1.5   974.8    0.00 
 337    9:20   0.08   32.5   100    1.3   164     3.1   975.2    0.00 
 337    9:30   0.12   33.0   100    0.5   137     2.0   975.4    0.00 
 337    9:40   0.10   34.1   100    0.7   165     1.6   975.6    0.00 
 337    9:50   0.11   35.2    99    0.0     0     0.0   975.7    0.00 
 337   10:00   0.09   35.8    99    0.5   166     1.7   975.9    0.00 
 337   10:10   0.26   36.6    98    0.4   154     1.3   975.9    0.00 
 337   10:20   0.23   38.1    97    0.1   118     1.2   975.8    0.01 
 337   10:30   0.17   39.2    96    0.0   224     0.4   975.8    0.00 
 337   10:40   0.24   39.6    95    0.3    38     1.5   975.6    0.00 
 337   10:50   0.21   40.6    94    0.5    56     2.3   975.4    0.00 
 337   11:00   0.31   41.4    93    1.1    10     3.0   975.3    0.00 
 337   11:10   0.20   42.0    92    0.4   137     1.6   975.2    0.00 
 337   11:20   0.47   43.9    91    0.7   168     2.3   975.1    0.00 
 337   11:30   0.46   45.7    87    0.1   162     0.9   974.9    0.00 
 337   11:40   0.38   47.0    84    0.1   139     1.0   974.7    0.00 
 337   11:50   0.45   47.3    85    0.6   180     2.3   974.5    0.00 
 337   12:00   0.44   48.2    83    0.3   174     1.6   974.2    0.00 
 337   12:10   0.25   47.9    84    0.7   197     2.0   974.0    0.00 
 337   12:20   0.22   47.9    84    0.5   160     1.8   974.0    0.00 
 337   12:30   0.22   48.2    85    0.7   158     1.7   974.0    0.00 
 337   12:40   0.20   48.1    86    0.7   146     1.7   973.9    0.00 
 337   12:50   0.21   48.5    86    0.7   140     1.9   973.8    0.00 
 337   13:00   0.23   49.2    84    0.3   181     1.6   973.8    0.00 
 337   13:10   0.22   49.9    83    0.6   173     1.5   973.8    0.00 
 337   13:20   0.18   49.7    83    0.3   147     1.3   973.8    0.00 
 337   13:30   0.24   49.6    82    0.3   336     2.3   973.7    0.00 
 337   13:40   0.35   50.1    78    0.1   117     0.9   973.5    0.00 
 337   13:50   0.37   49.9    74    0.5   271     1.8   973.4    0.00 
 337   14:00   0.38   49.4    71    0.4   312     2.2   973.3    0.00 
 337   14:10   0.16   48.9    70    0.2   273     1.7   973.2    0.00 
 337   14:20   0.06   47.7    75    0.2   270     1.3   973.1    0.00 
 337   14:30   0.03   46.9    80    0.4   299     2.0   973.5    0.00 
 337   14:40   0.03   46.3    84    0.4   311     1.3   973.6    0.00 
 337   14:50   0.03   45.9    88    0.6   337     1.8   973.6    0.00 
 337   15:00   0.04   45.7    90    1.6   355     2.9   973.8    0.00 
 337   15:10   0.04   45.6    90    1.0   359     2.2   974.0    0.00 
 337   15:20   0.04   45.8    88    1.4     9     4.6   974.1    0.00 
 337   15:30   0.04   45.5    88    0.4   323     2.8   974.1    0.00 
 337   15:40   0.03   45.1    89    1.2     2     2.8   974.0    0.00 
 337   15:50   0.03   44.8    90    0.4   350     2.0   974.0    0.00 
 337   16:00   0.03   44.4    91    0.4     5     1.9   974.1    0.00 
 337   16:10   0.01   44.1    91    0.0     0     0.0   974.1    0.00 
 337   16:20   0.02   43.8    92    0.0     0     0.0   974.0    0.00 
 337   16:30   0.01   43.7    93    0.3   174     1.0   974.0    0.00 
 337   16:40   0.01   43.4    94    0.1   172     0.7   974.1    0.00 
 337   16:50   0.00   43.1    94    0.3   182     1.3   974.2    0.00 
 337   17:00   0.00   42.8    95    0.1   198     0.7   974.3    0.00 
 337   17:10   0.00   42.5    96    0.0     0     0.0   974.2    0.00 
 337   17:20   0.00   42.1    96    0.0     0     0.0   974.2    0.00 
 337   17:30   0.00   41.7    97    0.0     0     0.0   974.3    0.00 
 337   17:40   0.00   41.5    97    0.0     0     0.0   974.3    0.00 
 337   17:50   0.00   41.3    98    0.1   195     0.8   974.2    0.00 
 337   18:00   0.00   41.1    98    0.0     0     0.0   974.3    0.00 
 337   18:10   0.00   40.9    98    0.0     0     0.0   974.3    0.00 
 337   18:20   0.00   40.7    98    0.0     0     0.0   974.4    0.00 
 337   18:30   0.00   40.4    99    0.6   175     1.5   974.5    0.00 
 337   18:40   0.00   40.1    99    0.1   190     0.8   974.3    0.00 
 337   18:50   0.00   39.8    99    0.3   313     1.3   974.2    0.00 
 337   19:00   0.00   39.6    99    0.8   346     1.8   974.4    0.00 
 337   19:10   0.00   39.4    99    0.5   349     1.4   974.5    0.00 
 337   19:20   0.00   39.2    99    0.5   325     1.7   974.6    0.00 
 337   19:30   0.00   38.9    99    0.2   354     1.7   974.5    0.00 
 337   19:40   0.00   38.7    99    0.1   189     0.9   974.5    0.00 
 337   19:50   0.00   38.4    99    0.0     0     0.0   974.6    0.00 
 337   20:00   0.00   38.3    99    0.0     0     0.0   974.6    0.00 
 337   20:10   0.00   38.1   100    0.2   336     2.0   974.4    0.00 
 337   20:20   0.00   38.0   100    0.7   338     2.0   974.2    0.00 
 337   20:30   0.00   37.8   100    0.6   348     1.7   974.4    0.00 
 337   20:40   0.00   37.7   100    0.3   309     1.9   974.4    0.00 
 337   20:50   0.00   37.5   100    0.1   181     1.8   974.5    0.00 
 337   21:00   0.00   37.4   100    0.2   178     1.8   974.7    0.00 
 337   21:10   0.00   37.2   100    0.0     0     0.0   974.9    0.00 
 337   21:20   0.00   37.0   100    0.0     0     0.0   974.9    0.00 
 337   21:30   0.00   36.9   100    0.0     0     0.0   974.9    0.00 
 337   21:40   0.00   36.7   100    0.1   333     1.4   974.9    0.00 
 337   21:50   0.00   36.4   100    0.3   352     1.1   975.0    0.00 
 337   22:00   0.00   36.3   100    0.0     0     0.0   975.0    0.00 
 337   22:10   0.00   36.1   100    0.0     0     0.0   975.0    0.00 
 337   22:20   0.00   36.0   100    1.1   354     2.6   975.0    0.00 
 337   22:30   0.00   36.1   100    2.2    11     2.8   975.1    0.00 
 337   22:40   0.00   36.1   100    2.0   356     3.2   975.2    0.00 
 337   22:50   0.00   35.9   100    0.8   330     1.7   975.1    0.00 
 337   23:00   0.00   35.7   100    0.2   301     0.9   975.1    0.00 
 337   23:10   0.00   35.6   100    0.8   336     1.9   975.2    0.00 
 337   23:20   0.00   35.4   100    1.7   324     2.9   975.2    0.00 
 337   23:30   0.00   35.4   100    2.0     3     2.9   975.2    0.00 
 337   23:40   0.00   35.4   100    2.2   356     3.4   975.2    0.00 
 337   23:50   0.00   35.4   100    1.8   351     3.1   975.2    0.00 
 338    0:00   0.00   35.2   100    1.3   326     2.0   975.2    0.00 
 338    0:10   0.00   35.1   100    0.2   338     1.4   975.1    0.00 
 338    0:20   0.00   34.9   100    0.8   329     2.0   975.1    0.00 
 338    0:30   0.00   34.8   100    1.3   330     2.1   975.1    0.00 
 338    0:40   0.00   34.5   100    1.1   331     2.3   975.1    0.00 
 338    0:50   0.00   34.5   100    0.1   323     1.0   975.2    0.00 
 338    1:00   0.00   34.3   100    0.4   327     1.4   975.2    0.00 

Return to Angelo Coast Range Reserve graphs page.


Western Regional Climate Center,wrcc@dri.edu